TimeEST,TemperatureF,Dew PointF,Humidity,Sea Level PressureIn,VisibilityMPH,Wind Direction,Wind SpeedMPH,Gust SpeedMPH,PrecipitationIn,Events,Conditions,WindDirDegrees,DateUTC
12:53 AM,25.0,10.9,55,30.05,10.0,WNW,6.9,16.1,N/A,,Clear,290,2012-01-03 05:53:00
1:53 AM,24.1,10.9,57,30.05,10.0,WNW,8.1,-,N/A,,Clear,290,2012-01-03 06:53:00
2:53 AM,24.1,10.0,55,30.06,10.0,WNW,5.8,-,N/A,,Clear,290,2012-01-03 07:53:00
3:53 AM,23.0,10.0,58,30.07,10.0,WNW,9.2,-,N/A,,Clear,290,2012-01-03 08:53:00
4:53 AM,23.0,10.0,58,30.08,10.0,WNW,9.2,-,N/A,,Clear,290,2012-01-03 09:53:00
5:53 AM,21.9,9.0,58,30.09,10.0,West,8.1,-,N/A,,Clear,280,2012-01-03 10:53:00
6:53 AM,23.0,9.0,55,30.12,10.0,WNW,4.6,-,N/A,,Mostly Cloudy,290,2012-01-03 11:53:00
7:53 AM,24.1,9.0,53,30.14,10.0,WNW,11.5,-,N/A,,Clear,300,2012-01-03 12:53:00
8:53 AM,26.6,10.4,51,30.17,10.0,West,10.4,18.4,N/A,,Clear,270,2012-01-03 13:53:00
9:53 AM,28.0,9.0,45,30.18,10.0,NW,18.4,26.5,N/A,,Mostly Cloudy,310,2012-01-03 14:53:00
10:53 AM,28.9,7.0,40,30.17,10.0,WNW,12.7,24.2,N/A,,Mostly Cloudy,300,2012-01-03 15:53:00
11:53 AM,30.9,7.0,37,30.15,10.0,NNW,16.1,27.6,N/A,,Partly Cloudy,330,2012-01-03 16:53:00
12:53 PM,30.9,7.0,37,30.13,10.0,WNW,12.7,24.2,N/A,,Overcast,300,2012-01-03 17:53:00
1:53 PM,32.0,6.1,34,30.12,10.0,West,10.4,21.9,N/A,,Mostly Cloudy,280,2012-01-03 18:53:00
2:53 PM,30.9,5.0,33,30.13,10.0,West,19.6,31.1,N/A,,Clear,280,2012-01-03 19:53:00
3:53 PM,30.0,3.0,32,30.17,10.0,WNW,21.9,27.6,N/A,,Clear,300,2012-01-03 20:53:00
4:53 PM,27.0,3.0,36,30.20,10.0,WNW,8.1,28.8,N/A,,Clear,300,2012-01-03 21:53:00
5:53 PM,26.1,3.9,39,30.24,10.0,WNW,10.4,-,N/A,,Partly Cloudy,300,2012-01-03 22:53:00
6:53 PM,25.0,5.0,43,30.27,10.0,West,4.6,-,N/A,,Clear,280,2012-01-03 23:53:00
7:53 PM,25.0,5.0,43,30.29,10.0,NNW,6.9,-,N/A,,Clear,330,2012-01-04 00:53:00
8:53 PM,24.1,6.1,46,30.30,10.0,NW,3.5,-,N/A,,Mostly Cloudy,310,2012-01-04 01:53:00
9:53 PM,23.0,6.8,50,30.31,10.0,WNW,3.5,-,N/A,,Scattered Clouds,300,2012-01-04 02:53:00
10:53 PM,19.9,8.1,60,30.32,10.0,Calm,Calm,-,N/A,,Clear,0,2012-01-04 03:53:00
11:53 PM,19.9,8.1,60,30.32,10.0,WSW,3.5,-,N/A,,Clear,240,2012-01-04 04:53:00